sensor_id;sensor_type;location;lat;lon;timestamp;pressure;altitude;pressure_sealevel;temperature;humidity
42587;BME280;28216;53.362;-6.288;2023-02-23T00:01:17;102062.59;;;5.06;100.00
42587;BME280;28216;53.362;-6.288;2023-02-23T00:03:44;102061.66;;;5.07;100.00
42587;BME280;28216;53.362;-6.288;2023-02-23T00:06:10;102071.59;;;5.00;100.00
42587;BME280;28216;53.362;-6.288;2023-02-23T00:08:37;102066.47;;;4.99;100.00
42587;BME280;28216;53.362;-6.288;2023-02-23T00:11:04;102074.47;;;4.96;100.00
42587;BME280;28216;53.362;-6.288;2023-02-23T00:13:34;102074.47;;;4.96;100.00
42587;BME280;28216;53.362;-6.288;2023-02-23T00:16:10;102067.69;;;4.93;100.00
42587;BME280;28216;53.362;-6.288;2023-02-23T00:18:45;102077.34;;;4.91;100.00
42587;BME280;28216;53.362;-6.288;2023-02-23T00:21:24;102076.41;;;4.92;100.00
42587;BME280;28216;53.362;-6.288;2023-02-23T00:23:58;102084.38;;;4.89;100.00
42587;BME280;28216;53.362;-6.288;2023-02-23T00:26:28;102089.59;;;4.89;100.00
42587;BME280;28216;53.362;-6.288;2023-02-23T00:29:00;102085.22;;;4.90;100.00
42587;BME280;28216;53.362;-6.288;2023-02-23T00:31:26;102086.16;;;4.89;100.00
42587;BME280;28216;53.362;-6.288;2023-02-23T00:33:54;102089.50;;;4.91;100.00
42587;BME280;28216;53.362;-6.288;2023-02-23T00:36:22;102093.09;;;4.88;100.00
42587;BME280;28216;53.362;-6.288;2023-02-23T00:38:52;102094.03;;;4.87;100.00
42587;BME280;28216;53.362;-6.288;2023-02-23T00:41:18;102096.91;;;4.83;100.00
42587;BME280;28216;53.362;-6.288;2023-02-23T00:43:47;102108.78;;;4.87;100.00
42587;BME280;28216;53.362;-6.288;2023-02-23T00:46:14;102108.13;;;4.83;100.00
42587;BME280;28216;53.362;-6.288;2023-02-23T00:48:43;102108.22;;;4.82;100.00
42587;BME280;28216;53.362;-6.288;2023-02-23T00:51:10;102105.63;;;4.82;100.00
42587;BME280;28216;53.362;-6.288;2023-02-23T00:53:36;102112.75;;;4.78;100.00
42587;BME280;28216;53.362;-6.288;2023-02-23T00:56:06;102114.03;;;4.71;100.00
42587;BME280;28216;53.362;-6.288;2023-02-23T00:58:31;102115.22;;;4.65;100.00
42587;BME280;28216;53.362;-6.288;2023-02-23T01:00:57;102117.00;;;4.65;100.00
42587;BME280;28216;53.362;-6.288;2023-02-23T01:03:28;102113.72;;;4.61;100.00
42587;BME280;28216;53.362;-6.288;2023-02-23T01:05:57;102121.97;;;4.54;100.00
42587;BME280;28216;53.362;-6.288;2023-02-23T01:08:23;102115.25;;;4.50;100.00
42587;BME280;28216;53.362;-6.288;2023-02-23T01:10:48;102115.44;;;4.46;100.00
42587;BME280;28216;53.362;-6.288;2023-02-23T01:13:19;102125.00;;;4.46;100.00
42587;BME280;28216;53.362;-6.288;2023-02-23T01:15:45;102123.16;;;4.48;100.00
42587;BME280;28216;53.362;-6.288;2023-02-23T01:18:13;102123.16;;;4.48;100.00
42587;BME280;28216;53.362;-6.288;2023-02-23T01:20:38;102131.16;;;4.43;100.00
42587;BME280;28216;53.362;-6.288;2023-02-23T01:23:06;102136.44;;;4.42;100.00
42587;BME280;28216;53.362;-6.288;2023-02-23T01:25:33;102137.72;;;4.35;100.00
42587;BME280;28216;53.362;-6.288;2023-02-23T01:27:59;102134.38;;;4.33;100.00
42587;BME280;28216;53.362;-6.288;2023-02-23T01:30:25;102130.66;;;4.37;100.00
42587;BME280;28216;53.362;-6.288;2023-02-23T01:32:50;102139.47;;;4.34;100.00
42587;BME280;28216;53.362;-6.288;2023-02-23T01:35:16;102128.00;;;4.38;100.00
42587;BME280;28216;53.362;-6.288;2023-02-23T01:37:42;102130.59;;;4.38;100.00
42587;BME280;28216;53.362;-6.288;2023-02-23T01:40:11;102128.81;;;4.39;100.00
42587;BME280;28216;53.362;-6.288;2023-02-23T01:42:41;102129.84;;;4.36;100.00
42587;BME280;28216;53.362;-6.288;2023-02-23T01:45:18;102140.72;;;4.43;100.00
42587;BME280;28216;53.362;-6.288;2023-02-23T01:47:45;102144.22;;;4.42;100.00
42587;BME280;28216;53.362;-6.288;2023-02-23T01:50:12;102152.03;;;4.42;100.00
42587;BME280;28216;53.362;-6.288;2023-02-23T01:52:42;102159.06;;;4.40;100.00
42587;BME280;28216;53.362;-6.288;2023-02-23T01:55:10;102166.09;;;4.38;100.00
42587;BME280;28216;53.362;-6.288;2023-02-23T01:57:39;102173.13;;;4.36;100.00
42587;BME280;28216;53.362;-6.288;2023-02-23T02:00:08;102168.13;;;4.33;100.00
42587;BME280;28216;53.362;-6.288;2023-02-23T02:02:40;102172.56;;;4.31;100.00
42587;BME280;28216;53.362;-6.288;2023-02-23T02:05:06;102172.81;;;4.26;100.00
42587;BME280;28216;53.362;-6.288;2023-02-23T02:07:37;102171.22;;;4.24;100.00
42587;BME280;28216;53.362;-6.288;2023-02-23T02:10:05;102176.50;;;4.22;100.00
42587;BME280;28216;53.362;-6.288;2023-02-23T02:12:41;102181.19;;;4.15;100.00
42587;BME280;28216;53.362;-6.288;2023-02-23T02:15:10;102190.81;;;4.13;100.00
42587;BME280;28216;53.362;-6.288;2023-02-23T02:46:03;102200.94;;;4.02;100.00
42587;BME280;28216;53.362;-6.288;2023-02-23T02:53:37;102205.13;;;4.05;100.00
42587;BME280;28216;53.362;-6.288;2023-02-23T02:56:05;102202.00;;;3.98;100.00
42587;BME280;28216;53.362;-6.288;2023-02-23T02:58:32;102203.69;;;3.99;100.00
42587;BME280;28216;53.362;-6.288;2023-02-23T03:01:05;102201.94;;;4.00;100.00
42587;BME280;28216;53.362;-6.288;2023-02-23T03:03:51;102208.38;;;3.93;100.00
42587;BME280;28216;53.362;-6.288;2023-02-23T03:06:56;102211.63;;;3.96;100.00
42587;BME280;28216;53.362;-6.288;2023-02-23T03:19:25;102216.63;;;3.83;100.00
42587;BME280;28216;53.362;-6.288;2023-02-23T03:25:05;102213.34;;;3.80;100.00
42587;BME280;28216;53.362;-6.288;2023-02-23T03:27:56;102220.63;;;3.73;100.00
42587;BME280;28216;53.362;-6.288;2023-02-23T03:33:45;102220.63;;;3.73;100.00
42587;BME280;28216;53.362;-6.288;2023-02-23T03:36:36;102218.09;;;3.72;100.00
42587;BME280;28216;53.362;-6.288;2023-02-23T03:40:22;102230.22;;;3.71;100.00
42587;BME280;28216;53.362;-6.288;2023-02-23T03:43:00;102230.44;;;3.67;100.00
42587;BME280;28216;53.362;-6.288;2023-02-23T03:45:49;102231.38;;;3.66;100.00
42587;BME280;28216;53.362;-6.288;2023-02-23T03:48:36;102234.03;;;3.64;100.00
42587;BME280;28216;53.362;-6.288;2023-02-23T03:51:22;102234.88;;;3.65;100.00
42587;BME280;28216;53.362;-6.288;2023-02-23T03:54:15;102250.81;;;3.57;100.00
42587;BME280;28216;53.362;-6.288;2023-02-23T03:57:03;102251.59;;;3.59;100.00
42587;BME280;28216;53.362;-6.288;2023-02-23T03:59:59;102256.09;;;3.56;100.00
42587;BME280;28216;53.362;-6.288;2023-02-23T04:02:47;102263.19;;;3.52;100.00
42587;BME280;28216;53.362;-6.288;2023-02-23T04:05:34;102256.41;;;3.49;100.00
42587;BME280;28216;53.362;-6.288;2023-02-23T04:08:24;102262.44;;;3.50;100.00
42587;BME280;28216;53.362;-6.288;2023-02-23T04:11:32;102254.56;;;3.51;100.00
42587;BME280;28216;53.362;-6.288;2023-02-23T04:14:30;102260.66;;;3.50;100.00
42587;BME280;28216;53.362;-6.288;2023-02-23T04:17:01;102270.19;;;3.50;100.00
42587;BME280;28216;53.362;-6.288;2023-02-23T04:19:27;102261.06;;;3.43;100.00
42587;BME280;28216;53.362;-6.288;2023-02-23T04:21:53;102260.06;;;3.45;100.00
42587;BME280;28216;53.362;-6.288;2023-02-23T04:24:19;102260.97;;;3.44;100.00
42587;BME280;28216;53.362;-6.288;2023-02-23T04:26:44;102268.69;;;3.46;100.00
42587;BME280;28216;53.362;-6.288;2023-02-23T04:29:11;102266.84;;;3.48;100.00
42587;BME280;28216;53.362;-6.288;2023-02-23T04:31:37;102273.09;;;3.44;100.00
42587;BME280;28216;53.362;-6.288;2023-02-23T04:34:03;102274.09;;;3.41;100.00
42587;BME280;28216;53.362;-6.288;2023-02-23T04:36:29;102277.84;;;3.36;100.00
42587;BME280;28216;53.362;-6.288;2023-02-23T04:38:55;102277.28;;;3.29;100.00
42587;BME280;28216;53.362;-6.288;2023-02-23T04:41:20;102274.69;;;3.29;100.00
42587;BME280;28216;53.362;-6.288;2023-02-23T04:43:46;102276.31;;;3.32;100.00
42587;BME280;28216;53.362;-6.288;2023-02-23T04:46:11;102270.44;;;3.28;100.00
42587;BME280;28216;53.362;-6.288;2023-02-23T04:48:37;102271.88;;;3.34;100.00
42587;BME280;28216;53.362;-6.288;2023-02-23T04:51:02;102270.13;;;3.34;100.00
42587;BME280;28216;53.362;-6.288;2023-02-23T04:53:28;102270.28;;;3.31;100.00
42587;BME280;28216;53.362;-6.288;2023-02-23T04:55:54;102278.06;;;3.31;100.00
42587;BME280;28216;53.362;-6.288;2023-02-23T04:58:19;102271.88;;;3.34;100.00
42587;BME280;28216;53.362;-6.288;2023-02-23T05:00:44;102281.34;;;3.35;100.00
42587;BME280;28216;53.362;-6.288;2023-02-23T05:03:10;102279.72;;;3.32;100.00
42587;BME280;28216;53.362;-6.288;2023-02-23T05:05:37;102267.00;;;3.28;100.00
42587;BME280;28216;53.362;-6.288;2023-02-23T05:08:03;102270.44;;;3.28;100.00
42587;BME280;28216;53.362;-6.288;2023-02-23T05:10:28;102266.16;;;3.27;100.00
42587;BME280;28216;53.362;-6.288;2023-02-23T05:12:54;102264.47;;;3.26;100.00
42587;BME280;28216;53.362;-6.288;2023-02-23T05:15:20;102271.34;;;3.27;100.00
42587;BME280;28216;53.362;-6.288;2023-02-23T05:17:46;102268.81;;;3.26;100.00
42587;BME280;28216;53.362;-6.288;2023-02-23T05:20:13;102255.19;;;3.22;100.00
42587;BME280;28216;53.362;-6.288;2023-02-23T05:22:39;102254.25;;;3.23;100.00
42587;BME280;28216;53.362;-6.288;2023-02-23T05:25:05;102250.84;;;3.23;100.00
42587;BME280;28216;53.362;-6.288;2023-02-23T05:27:32;102250.06;;;3.21;100.00
42587;BME280;28216;53.362;-6.288;2023-02-23T05:29:58;102244.88;;;3.21;100.00
42587;BME280;28216;53.362;-6.288;2023-02-23T05:32:24;102244.13;;;3.18;100.00
42587;BME280;28216;53.362;-6.288;2023-02-23T05:34:49;102245.88;;;3.18;100.00
42587;BME280;28216;53.362;-6.288;2023-02-23T05:37:15;102248.63;;;3.15;100.00
42587;BME280;28216;53.362;-6.288;2023-02-23T05:39:40;102258.22;;;3.13;100.00
42587;BME280;28216;53.362;-6.288;2023-02-23T05:42:06;102258.44;;;3.08;100.00
42587;BME280;28216;53.362;-6.288;2023-02-23T05:44:31;102265.38;;;3.08;100.00
42587;BME280;28216;53.362;-6.288;2023-02-23T05:46:57;102257.84;;;3.03;100.00
42587;BME280;28216;53.362;-6.288;2023-02-23T05:49:22;102264.97;;;2.98;100.00
42587;BME280;28216;53.362;-6.288;2023-02-23T05:51:48;102272.94;;;2.94;100.00
42587;BME280;28216;53.362;-6.288;2023-02-23T05:54:16;102272.03;;;2.95;100.00
42587;BME280;28216;53.362;-6.288;2023-02-23T05:56:44;102271.13;;;2.96;100.00
42587;BME280;28216;53.362;-6.288;2023-02-23T05:59:09;102269.31;;;2.98;100.00
42587;BME280;28216;53.362;-6.288;2023-02-23T06:01:37;102263.00;;;3.03;100.00
42587;BME280;28216;53.362;-6.288;2023-02-23T06:04:03;102262.94;;;3.05;100.00
42587;BME280;28216;53.362;-6.288;2023-02-23T06:06:29;102261.25;;;3.04;100.00
42587;BME280;28216;53.362;-6.288;2023-02-23T06:08:57;102257.97;;;3.00;100.00
42587;BME280;28216;53.362;-6.288;2023-02-23T06:11:23;102254.31;;;3.04;100.00
42587;BME280;28216;53.362;-6.288;2023-02-23T06:13:48;102257.69;;;3.06;100.00
42587;BME280;28216;53.362;-6.288;2023-02-23T06:16:16;102260.41;;;3.03;100.00
42587;BME280;28216;53.362;-6.288;2023-02-23T06:18:42;102254.31;;;3.04;100.00
42587;BME280;28216;53.362;-6.288;2023-02-23T06:21:07;102263.78;;;3.05;100.00
42587;BME280;28216;53.362;-6.288;2023-02-23T06:23:33;102259.44;;;3.06;100.00
42587;BME280;28216;53.362;-6.288;2023-02-23T06:25:59;102260.41;;;3.03;100.00
42587;BME280;28216;53.362;-6.288;2023-02-23T06:28:25;102257.00;;;3.03;100.00
42587;BME280;28216;53.362;-6.288;2023-02-23T06:30:52;102256.16;;;3.02;100.00
42587;BME280;28216;53.362;-6.288;2023-02-23T06:33:17;102251.97;;;3.00;100.00
42587;BME280;28216;53.362;-6.288;2023-02-23T06:35:48;102254.63;;;2.98;100.00
42587;BME280;28216;53.362;-6.288;2023-02-23T06:38:14;102249.56;;;2.95;100.00
42587;BME280;28216;53.362;-6.288;2023-02-23T06:40:39;102252.44;;;2.89;100.00
42587;BME280;28216;53.362;-6.288;2023-02-23T06:43:06;102271.41;;;2.90;100.00
42587;BME280;28216;53.362;-6.288;2023-02-23T06:45:34;102268.97;;;2.86;100.00
42587;BME280;28216;53.362;-6.288;2023-02-23T06:47:59;102270.72;;;2.86;100.00
42587;BME280;28216;53.362;-6.288;2023-02-23T06:50:26;102277.78;;;2.82;100.00
42587;BME280;28216;53.362;-6.288;2023-02-23T06:52:54;102274.44;;;2.80;100.00
42587;BME280;28216;53.362;-6.288;2023-02-23T06:55:22;102273.06;;;2.73;100.00
42587;BME280;28216;53.362;-6.288;2023-02-23T06:57:48;102284.19;;;2.75;100.00
42587;BME280;28216;53.362;-6.288;2023-02-23T07:00:17;102287.69;;;2.74;100.00
42587;BME280;28216;53.362;-6.288;2023-02-23T07:05:32;102307.69;;;2.71;100.00
42587;BME280;28216;53.362;-6.288;2023-02-23T07:07:57;102308.53;;;2.71;100.00
42587;BME280;28216;53.362;-6.288;2023-02-23T07:10:32;102310.06;;;2.75;100.00
42587;BME280;28216;53.362;-6.288;2023-02-23T07:13:00;102310.91;;;2.76;100.00
42587;BME280;28216;53.362;-6.288;2023-02-23T07:15:26;102316.78;;;2.79;100.00
42587;BME280;28216;53.362;-6.288;2023-02-23T07:17:51;102312.38;;;2.81;100.00
42587;BME280;28216;53.362;-6.288;2023-02-23T07:20:18;102319.09;;;2.85;100.00
42587;BME280;28216;53.362;-6.288;2023-02-23T07:22:45;102330.09;;;2.91;100.00
42587;BME280;28216;53.362;-6.288;2023-02-23T07:25:10;102319.66;;;2.92;100.00
42587;BME280;28216;53.362;-6.288;2023-02-23T07:27:36;102319.59;;;2.94;100.00
42587;BME280;28216;53.362;-6.288;2023-02-23T07:30:02;102320.56;;;2.91;100.00
42587;BME280;28216;53.362;-6.288;2023-02-23T07:32:28;102329.31;;;2.88;100.00
42587;BME280;28216;53.362;-6.288;2023-02-23T07:34:56;102333.94;;;2.82;100.00
42587;BME280;28216;53.362;-6.288;2023-02-23T07:37:22;102337.50;;;2.79;100.00
42587;BME280;28216;53.362;-6.288;2023-02-23T07:39:47;102339.34;;;2.77;100.00
42587;BME280;28216;53.362;-6.288;2023-02-23T07:42:13;102353.19;;;2.76;100.00
42587;BME280;28216;53.362;-6.288;2023-02-23T07:44:39;102355.84;;;2.75;100.00
42587;BME280;28216;53.362;-6.288;2023-02-23T07:47:05;102360.19;;;2.74;100.00
42587;BME280;28216;53.362;-6.288;2023-02-23T07:49:31;102361.03;;;2.75;100.00
42587;BME280;28216;53.362;-6.288;2023-02-23T07:51:59;102358.44;;;2.75;100.00
42587;BME280;28216;53.362;-6.288;2023-02-23T07:54:27;102364.41;;;2.77;100.00
42587;BME280;28216;53.362;-6.288;2023-02-23T07:56:53;102368.59;;;2.79;100.00
42587;BME280;28216;53.362;-6.288;2023-02-23T07:59:18;102366.78;;;2.81;100.00
42587;BME280;28216;53.362;-6.288;2023-02-23T08:01:44;102371.03;;;2.82;100.00
42587;BME280;28216;53.362;-6.288;2023-02-23T08:04:10;102383.09;;;2.83;100.00
42587;BME280;28216;53.362;-6.288;2023-02-23T08:06:35;102388.19;;;2.85;100.00
42587;BME280;28216;53.362;-6.288;2023-02-23T08:09:02;102387.38;;;2.84;100.00
42587;BME280;28216;53.362;-6.288;2023-02-23T08:11:28;102382.81;;;2.90;100.00
42587;BME280;28216;53.362;-6.288;2023-02-23T08:13:54;102379.25;;;2.92;100.00
42587;BME280;28216;53.362;-6.288;2023-02-23T08:16:25;102385.13;;;2.96;100.00
42587;BME280;28216;53.362;-6.288;2023-02-23T08:18:51;102383.34;;;2.98;100.00
42587;BME280;28216;53.362;-6.288;2023-02-23T08:21:16;102379.00;;;2.98;100.00
42587;BME280;28216;53.362;-6.288;2023-02-23T08:23:42;102389.69;;;3.09;100.00
42587;BME280;28216;53.362;-6.288;2023-02-23T08:26:07;102396.34;;;3.15;100.00
42587;BME280;28216;53.362;-6.288;2023-02-23T08:28:33;102397.88;;;3.19;100.00
42587;BME280;28216;53.362;-6.288;2023-02-23T08:30:58;102398.44;;;3.26;100.00
42587;BME280;28216;53.362;-6.288;2023-02-23T08:33:24;102399.97;;;3.30;100.00
42587;BME280;28216;53.362;-6.288;2023-02-23T08:35:49;102391.81;;;3.37;100.00
42587;BME280;28216;53.362;-6.288;2023-02-23T08:38:17;102399.31;;;3.43;100.00
42587;BME280;28216;53.362;-6.288;2023-02-23T08:40:43;102398.09;;;3.50;100.00
42587;BME280;28216;53.362;-6.288;2023-02-23T08:43:08;102395.84;;;3.62;100.00
42587;BME280;28216;53.362;-6.288;2023-02-23T08:45:34;102391.03;;;3.71;100.00
42587;BME280;28216;53.362;-6.288;2023-02-23T08:47:59;102399.09;;;3.84;100.00
42587;BME280;28216;53.362;-6.288;2023-02-23T08:50:25;102389.94;;;3.94;100.00
42587;BME280;28216;53.362;-6.288;2023-02-23T08:52:50;102395.25;;;4.08;100.00
42587;BME280;28216;53.362;-6.288;2023-02-23T08:55:15;102404.03;;;4.23;100.00
42587;BME280;28216;53.362;-6.288;2023-02-23T08:57:42;102394.69;;;4.36;100.00
42587;BME280;28216;53.362;-6.288;2023-02-23T09:00:08;102410.59;;;4.47;100.00
42587;BME280;28216;53.362;-6.288;2023-02-23T09:02:42;102393.44;;;4.61;100.00
42587;BME280;28216;53.362;-6.288;2023-02-23T09:05:08;102396.56;;;4.67;100.00
42587;BME280;28216;53.362;-6.288;2023-02-23T09:07:33;102407.22;;;4.78;100.00
42587;BME280;28216;53.362;-6.288;2023-02-23T09:09:59;102404.13;;;4.88;100.00
42587;BME280;28216;53.362;-6.288;2023-02-23T09:12:24;102413.88;;;5.00;100.00
42587;BME280;28216;53.362;-6.288;2023-02-23T09:14:50;102409.16;;;5.06;100.00
42587;BME280;28216;53.362;-6.288;2023-02-23T09:17:18;102410.34;;;5.17;100.00
42587;BME280;28216;53.362;-6.288;2023-02-23T09:19:44;102414.50;;;5.21;100.00
42587;BME280;28216;53.362;-6.288;2023-02-23T09:22:10;102411.88;;;5.36;100.00
42587;BME280;28216;53.362;-6.288;2023-02-23T09:24:35;102407.34;;;5.40;100.00
42587;BME280;28216;53.362;-6.288;2023-02-23T09:27:04;102407.41;;;5.54;100.00
42587;BME280;28216;53.362;-6.288;2023-02-23T09:29:31;102405.97;;;5.64;100.00
42587;BME280;28216;53.362;-6.288;2023-02-23T09:31:57;102403.66;;;5.74;100.00
42587;BME280;28216;53.362;-6.288;2023-02-23T09:34:23;102395.50;;;5.80;100.00
42587;BME280;28216;53.362;-6.288;2023-02-23T09:36:48;102400.22;;;5.89;100.00
42587;BME280;28216;53.362;-6.288;2023-02-23T09:39:14;102398.78;;;5.99;100.00
42587;BME280;28216;53.362;-6.288;2023-02-23T09:45:25;102399.66;;;6.14;100.00
42587;BME280;28216;53.362;-6.288;2023-02-23T09:50:37;102402.75;;;6.35;100.00
42587;BME280;28216;53.362;-6.288;2023-02-23T09:53:20;102410.00;;;6.44;100.00
42587;BME280;28216;53.362;-6.288;2023-02-23T09:55:59;102417.09;;;6.56;100.00
42587;BME280;28216;53.362;-6.288;2023-02-23T10:07:51;102410.03;;;6.87;100.00
42587;BME280;28216;53.362;-6.288;2023-02-23T10:10:45;102415.41;;;6.98;100.00
42587;BME280;28216;53.362;-6.288;2023-02-23T10:16:50;102400.28;;;7.17;100.00
42587;BME280;28216;53.362;-6.288;2023-02-23T10:23:06;102401.28;;;7.29;100.00
42587;BME280;28216;53.362;-6.288;2023-02-23T10:26:01;102404.97;;;7.39;100.00
42587;BME280;28216;53.362;-6.288;2023-02-23T10:31:55;102396.38;;;7.51;100.00
42587;BME280;28216;53.362;-6.288;2023-02-23T10:34:26;102398.50;;;7.59;100.00
42587;BME280;28216;53.362;-6.288;2023-02-23T10:37:00;102396.41;;;7.64;100.00
42587;BME280;28216;53.362;-6.288;2023-02-23T10:39:28;102402.16;;;7.69;100.00
42587;BME280;28216;53.362;-6.288;2023-02-23T10:41:57;102399.25;;;7.74;99.43
42587;BME280;28216;53.362;-6.288;2023-02-23T10:44:26;102401.88;;;7.74;98.12
42587;BME280;28216;53.362;-6.288;2023-02-23T10:47:01;102411.06;;;7.79;96.73
42587;BME280;28216;53.362;-6.288;2023-02-23T10:49:48;102401.56;;;7.78;94.71
42587;BME280;28216;53.362;-6.288;2023-02-23T10:52:20;102405.75;;;7.81;94.66
42587;BME280;28216;53.362;-6.288;2023-02-23T10:54:47;102400.53;;;7.81;93.39
42587;BME280;28216;53.362;-6.288;2023-02-23T10:57:27;102408.91;;;7.86;93.16
42587;BME280;28216;53.362;-6.288;2023-02-23T11:00:21;102409.84;;;7.85;92.12
42587;BME280;28216;53.362;-6.288;2023-02-23T11:02:56;102414.56;;;7.92;92.28
42587;BME280;28216;53.362;-6.288;2023-02-23T11:05:43;102405.56;;;7.96;91.43
42587;BME280;28216;53.362;-6.288;2023-02-23T11:08:23;102415.19;;;7.96;91.10
42587;BME280;28216;53.362;-6.288;2023-02-23T11:11:01;102407.97;;;8.00;91.17
42587;BME280;28216;53.362;-6.288;2023-02-23T11:13:34;102406.09;;;8.02;89.25
42587;BME280;28216;53.362;-6.288;2023-02-23T11:16:02;102413.00;;;8.03;88.34
42587;BME280;28216;53.362;-6.288;2023-02-23T11:18:29;102395.34;;;8.06;88.27
42587;BME280;28216;53.362;-6.288;2023-02-23T11:20:55;102391.78;;;8.07;88.02
42587;BME280;28216;53.362;-6.288;2023-02-23T11:23:22;102394.00;;;8.13;87.61
42587;BME280;28216;53.362;-6.288;2023-02-23T11:25:51;102386.72;;;8.18;87.31
42587;BME280;28216;53.362;-6.288;2023-02-23T11:28:32;102383.69;;;8.24;86.63
42587;BME280;28216;53.362;-6.288;2023-02-23T11:31:03;102385.47;;;8.24;85.39
42587;BME280;28216;53.362;-6.288;2023-02-23T11:33:33;102385.25;;;8.27;84.97
42587;BME280;28216;53.362;-6.288;2023-02-23T11:36:16;102384.88;;;8.33;83.71
42587;BME280;28216;53.362;-6.288;2023-02-23T11:38:45;102387.38;;;8.35;83.75
42587;BME280;28216;53.362;-6.288;2023-02-23T11:41:21;102382.25;;;8.33;82.79
42587;BME280;28216;53.362;-6.288;2023-02-23T11:43:48;102382.25;;;8.33;81.14
42587;BME280;28216;53.362;-6.288;2023-02-23T11:46:14;102379.44;;;8.36;82.04
42587;BME280;28216;53.362;-6.288;2023-02-23T11:49:12;102381.31;;;8.34;80.05
42587;BME280;28216;53.362;-6.288;2023-02-23T11:51:46;102375.13;;;8.35;80.68
42587;BME280;28216;53.362;-6.288;2023-02-23T11:54:32;102365.19;;;8.40;80.34
42587;BME280;28216;53.362;-6.288;2023-02-23T11:56:58;102358.09;;;8.42;80.54
42587;BME280;28216;53.362;-6.288;2023-02-23T11:59:36;102368.53;;;8.42;79.34
42587;BME280;28216;53.362;-6.288;2023-02-23T12:05:12;102363.94;;;8.46;80.02
42587;BME280;28216;53.362;-6.288;2023-02-23T12:08:05;102365.19;;;8.53;79.56
42587;BME280;28216;53.362;-6.288;2023-02-23T12:10:41;102360.91;;;8.52;80.14
42587;BME280;28216;53.362;-6.288;2023-02-23T12:13:37;102360.78;;;8.53;79.57
42587;BME280;28216;53.362;-6.288;2023-02-23T12:16:26;102350.22;;;8.55;79.62
42587;BME280;28216;53.362;-6.288;2023-02-23T12:27:25;102329.06;;;8.71;79.17
42587;BME280;28216;53.362;-6.288;2023-02-23T12:30:16;102323.44;;;8.64;77.44
42587;BME280;28216;53.362;-6.288;2023-02-23T12:41:42;102312.50;;;8.83;73.84
42587;BME280;28216;53.362;-6.288;2023-02-23T12:46:59;102307.78;;;8.88;71.07
42587;BME280;28216;53.362;-6.288;2023-02-23T12:49:45;102294.91;;;8.98;70.19
42587;BME280;28216;53.362;-6.288;2023-02-23T12:52:18;102297.75;;;8.95;69.15
42587;BME280;28216;53.362;-6.288;2023-02-23T12:54:44;102286.00;;;9.00;69.58
42587;BME280;28216;53.362;-6.288;2023-02-23T12:57:33;102284.09;;;9.02;70.19
42587;BME280;28216;53.362;-6.288;2023-02-23T13:00:29;102284.38;;;9.10;71.03
42587;BME280;28216;53.362;-6.288;2023-02-23T13:03:23;102283.44;;;9.11;70.01
42587;BME280;28216;53.362;-6.288;2023-02-23T13:14:44;102262.50;;;9.11;70.92
42587;BME280;28216;53.362;-6.288;2023-02-23T13:20:11;102266.31;;;9.18;72.79
42587;BME280;28216;53.362;-6.288;2023-02-23T13:22:57;102260.88;;;9.21;72.94
42587;BME280;28216;53.362;-6.288;2023-02-23T13:25:33;102256.19;;;9.14;71.81
42587;BME280;28216;53.362;-6.288;2023-02-23T13:28:03;102259.31;;;9.19;71.73
42587;BME280;28216;53.362;-6.288;2023-02-23T13:30:30;102250.63;;;9.18;72.21
42587;BME280;28216;53.362;-6.288;2023-02-23T13:32:58;102245.38;;;9.18;71.97
42587;BME280;28216;53.362;-6.288;2023-02-23T13:35:28;102246.94;;;9.21;71.95
42587;BME280;28216;53.362;-6.288;2023-02-23T13:38:27;102250.28;;;9.23;70.04
42587;BME280;28216;53.362;-6.288;2023-02-23T13:40:51;102254.56;;;9.24;70.51
42587;BME280;28216;53.362;-6.288;2023-02-23T13:43:47;102251.22;;;9.22;69.56
42587;BME280;28216;53.362;-6.288;2023-02-23T13:49:33;102250.00;;;9.15;70.74
42587;BME280;28216;53.362;-6.288;2023-02-23T13:52:28;102247.25;;;9.05;71.35
42587;BME280;28216;53.362;-6.288;2023-02-23T13:54:57;102250.47;;;9.09;72.60
42587;BME280;28216;53.362;-6.288;2023-02-23T13:57:30;102244.28;;;9.10;72.58
42587;BME280;28216;53.362;-6.288;2023-02-23T13:59:56;102241.44;;;9.13;73.14
42587;BME280;28216;53.362;-6.288;2023-02-23T14:02:33;102236.94;;;9.15;73.19
42587;BME280;28216;53.362;-6.288;2023-02-23T14:07:32;102236.59;;;9.19;73.60
42587;BME280;28216;53.362;-6.288;2023-02-23T14:10:24;102234.69;;;9.21;73.38
42587;BME280;28216;53.362;-6.288;2023-02-23T14:15:48;102238.41;;;9.30;73.64
42587;BME280;28216;53.362;-6.288;2023-02-23T14:21:00;102230.09;;;9.36;73.33
42587;BME280;28216;53.362;-6.288;2023-02-23T14:23:47;102230.94;;;9.37;73.92
42587;BME280;28216;53.362;-6.288;2023-02-23T14:26:35;102227.47;;;9.36;73.95
42587;BME280;28216;53.362;-6.288;2023-02-23T14:31:35;102227.84;;;9.43;74.39
42587;BME280;28216;53.362;-6.288;2023-02-23T14:34:08;102221.53;;;9.45;74.16
42587;BME280;28216;53.362;-6.288;2023-02-23T14:36:36;102218.81;;;9.47;74.68
42587;BME280;28216;53.362;-6.288;2023-02-23T14:39:08;102220.72;;;9.45;74.97
42587;BME280;28216;53.362;-6.288;2023-02-23T14:44:34;102214.41;;;9.47;75.38
42587;BME280;28216;53.362;-6.288;2023-02-23T14:47:50;102210.72;;;9.50;74.90
42587;BME280;28216;53.362;-6.288;2023-02-23T14:50:26;102210.38;;;9.54;75.18
42587;BME280;28216;53.362;-6.288;2023-02-23T14:52:57;102213.09;;;9.53;75.38
42587;BME280;28216;53.362;-6.288;2023-02-23T14:55:42;102204.41;;;9.52;75.37
42587;BME280;28216;53.362;-6.288;2023-02-23T14:58:25;102197.88;;;9.47;75.45
42587;BME280;28216;53.362;-6.288;2023-02-23T15:00:50;102207.03;;;9.52;75.78
42587;BME280;28216;53.362;-6.288;2023-02-23T15:03:16;102195.63;;;9.53;75.95
42587;BME280;28216;53.362;-6.288;2023-02-23T15:05:45;102187.75;;;9.53;76.19
42587;BME280;28216;53.362;-6.288;2023-02-23T15:08:15;102188.22;;;9.47;75.99
42587;BME280;28216;53.362;-6.288;2023-02-23T15:10:44;102180.13;;;9.50;76.17
42587;BME280;28216;53.362;-6.288;2023-02-23T15:13:35;102178.34;;;9.51;75.62
42587;BME280;28216;53.362;-6.288;2023-02-23T15:16:20;102177.63;;;9.49;76.37